Time;durP1;ratioP1;P1;durP2;ratioP2;P2;SDS_P1;SDS_P2;PMS_P1;PMS_P2;Temp;Humidity;BMP_temperature;BMP_pressure;BME280_temperature;BME280_humidity;BME280_pressure;Samples;Min_cycle;Max_cycle;Signal;HPM_P1;HPM_P2
2021/04/29 00:00:18;;;;;;;16.35;9.57;;;;;;;10.49;88.42;96738.53;5022903;28;20037;-63
2021/04/29 00:02:44;;;;;;;12.68;8.55;;;;;;;9.89;89.29;96668.53;5025274;28;20068;-63
2021/04/29 00:05:13;;;;;;;15.85;9.30;;;;;;;9.39;88.72;96597.09;5022988;28;20475;-64
2021/04/29 00:07:38;;;;;;;15.95;9.30;;;;;;;10.30;89.88;96736.72;5025552;28;20064;-63
2021/04/29 00:10:06;;;;;;;17.55;9.02;;;;;;;9.79;88.92;96671.94;5023460;28;20071;-63
2021/04/29 00:12:32;;;;;;;13.70;8.63;;;;;;;10.10;90.45;96743.53;5023158;28;20030;-63
2021/04/29 00:14:58;;;;;;;20.50;8.80;;;;;;;10.12;90.82;96745.94;5024865;28;20497;-64
2021/04/29 00:17:23;;;;;;;14.00;9.10;;;;;;;10.15;90.05;96743.22;5024495;28;20040;-64
2021/04/29 00:19:49;;;;;;;13.85;8.30;;;;;;;10.22;89.46;96740.56;5023237;28;20045;-63
2021/04/29 00:22:14;;;;;;;13.05;8.20;;;;;;;9.59;89.45;96673.25;5024490;28;20052;-62
2021/04/29 00:24:39;;;;;;;14.40;7.97;;;;;;;9.13;89.13;96613.69;5023611;28;20411;-65
2021/04/29 00:27:05;;;;;;;12.52;7.90;;;;;;;9.92;89.90;96747.19;5024546;28;20026;-63
2021/04/29 00:29:31;;;;;;;13.55;8.23;;;;;;;9.79;90.71;96748.56;5025058;28;20041;-63
2021/04/29 00:31:56;;;;;;;15.07;8.95;;;;;;;8.94;90.68;96602.75;5022646;28;20037;-63
2021/04/29 00:34:22;;;;;;;15.27;8.88;;;;;;;9.62;90.76;96716.72;5022868;28;20037;-63
2021/04/29 00:36:47;;;;;;;15.20;9.57;;;;;;;9.81;91.24;96749.00;5024241;28;20033;-63
2021/04/29 00:39:12;;;;;;;17.00;9.90;;;;;;;9.93;89.66;96766.19;5022846;28;20088;-63
2021/04/29 00:41:38;;;;;;;23.88;10.70;;;;;;;9.96;88.45;96746.06;5024111;28;20577;-63
2021/04/29 00:44:04;;;;;;;20.70;10.52;;;;;;;9.52;89.52;96700.75;5023015;28;20029;-63
2021/04/29 00:46:29;;;;;;;22.73;10.05;;;;;;;9.75;90.37;96736.66;5023551;28;20045;-64
2021/04/29 00:48:55;;;;;;;22.67;11.75;;;;;;;9.71;90.17;96742.16;5022540;28;20188;-63
2021/04/29 00:51:21;;;;;;;21.67;11.20;;;;;;;9.42;89.85;96701.38;5023085;28;20115;-63
2021/04/29 00:53:47;;;;;;;20.90;10.32;;;;;;;9.64;89.25;96730.97;5024471;28;20041;-63
2021/04/29 00:56:13;;;;;;;22.08;9.32;;;;;;;9.55;89.26;96738.72;5023207;28;20043;-63
2021/04/29 00:58:39;;;;;;;18.25;9.75;;;;;;;9.38;90.06;96733.72;5024284;28;20052;-64
2021/04/29 01:01:07;;;;;;;18.13;9.63;;;;;;;9.58;89.87;96737.22;5023257;28;20045;-63
2021/04/29 01:04:07;;;;;;;15.00;8.68;;;;;;;9.59;89.48;96747.91;5024313;28;20048;-63
2021/04/29 01:06:37;;;;;;;16.02;9.07;;;;;;;9.52;90.63;96742.25;5000911;28;20104;-62
2021/04/29 01:09:10;;;;;;;19.52;8.63;;;;;;;6.01;90.83;96211.91;5019776;28;20045;-62
2021/04/29 01:11:39;;;;;;;16.80;8.55;;;;;;;9.44;91.14;96748.81;5021725;28;20432;-63
2021/04/29 01:14:05;;;;;;;12.70;8.38;;;;;;;9.32;90.84;96729.69;5024184;28;20041;-63
2021/04/29 01:16:33;;;;;;;17.13;9.80;;;;;;;9.37;91.14;96721.06;5021445;28;20037;-64
2021/04/29 01:19:00;;;;;;;13.02;8.73;;;;;;;9.00;92.43;96707.03;5022483;28;20220;-63
2021/04/29 01:21:28;;;;;;;16.77;9.15;;;;;;;9.31;92.27;96739.13;5023629;28;20033;-63
2021/04/29 01:24:25;;;;;;;13.98;9.75;;;;;;;9.38;92.77;96739.25;5024522;28;20471;-63
2021/04/29 01:26:54;;;;;;;15.07;8.15;;;;;;;9.06;90.67;96704.75;5013830;28;20053;-64
2021/04/29 01:29:31;;;;;;;16.65;8.43;;;;;;;9.25;92.06;96735.06;5004169;28;20816;-63
2021/04/29 01:31:58;;;;;;;17.15;9.02;;;;;;;9.18;92.49;96738.50;5003714;28;20076;-63
2021/04/29 01:34:27;;;;;;;13.20;8.48;;;;;;;9.27;91.44;96743.00;5004634;28;20456;-63
2021/04/29 01:36:53;;;;;;;16.35;8.65;;;;;;;9.30;91.33;96753.31;5018346;28;20033;-63
2021/04/29 01:39:20;;;;;;;14.48;8.68;;;;;;;8.47;90.20;96616.13;5004649;28;20062;-64
2021/04/29 01:41:48;;;;;;;14.07;8.38;;;;;;;8.76;90.88;96667.91;5003747;28;20037;-64
2021/04/29 01:44:15;;;;;;;14.32;8.45;;;;;;;8.78;92.11;96693.19;5019216;28;20562;-63
2021/04/29 01:46:42;;;;;;;15.43;8.57;;;;;;;6.30;92.45;96293.03;5003345;28;20045;-63
2021/04/29 01:49:09;;;;;;;13.88;9.15;;;;;;;9.10;92.83;96744.28;5004249;28;20413;-64
2021/04/29 01:51:36;;;;;;;11.82;8.60;;;;;;;9.07;91.36;96751.34;5002961;28;20061;-63
2021/04/29 01:54:02;;;;;;;16.40;9.68;;;;;;;8.82;91.17;96710.66;5020670;28;20510;-63
2021/04/29 01:56:28;;;;;;;16.15;10.15;;;;;;;8.85;91.80;96720.94;5007292;28;20103;-63
2021/04/29 01:58:54;;;;;;;21.88;10.02;;;;;;;8.96;92.52;96749.56;5006029;28;20440;-64
2021/04/29 02:01:20;;;;;;;17.77;9.77;;;;;;;8.95;93.56;96753.47;5007574;28;20038;-64
2021/04/29 02:03:46;;;;;;;15.07;8.73;;;;;;;9.12;90.80;96748.28;5008184;28;20142;-63
2021/04/29 02:06:11;;;;;;;14.40;8.50;;;;;;;9.12;92.05;96742.75;5021880;28;20073;-63
2021/04/29 02:08:36;;;;;;;19.10;9.48;;;;;;;9.04;92.09;96745.78;5007731;28;20041;-63
2021/04/29 02:11:03;;;;;;;15.18;8.25;;;;;;;9.10;92.06;96745.06;5007056;28;20040;-63
2021/04/29 02:13:29;;;;;;;12.93;8.30;;;;;;;8.91;92.56;96758.16;5022343;28;20141;-63
2021/04/29 02:16:05;;;;;;;15.13;8.75;;;;;;;8.81;93.18;96726.41;5007128;28;20045;-63
2021/04/29 02:18:31;;;;;;;16.48;8.50;;;;;;;9.05;93.18;96766.69;5007673;28;20124;-62
2021/04/29 02:21:00;;;;;;;17.90;8.57;;;;;;;8.03;93.78;96612.09;5006923;28;20113;-62
2021/04/29 02:23:27;;;;;;;12.82;8.75;;;;;;;8.75;94.46;96871.47;5007413;28;20034;-64
2021/04/29 02:25:54;;;;;;;14.77;8.07;;;;;;;8.79;94.69;96738.97;5006728;28;20030;-63
2021/04/29 02:28:20;;;;;;;11.63;8.20;;;;;;;8.37;93.31;96671.91;5024279;28;20404;-63
2021/04/29 02:30:47;;;;;;;15.93;8.23;;;;;;;8.91;92.58;96752.63;5026344;28;20029;-62
2021/04/29 02:33:13;;;;;;;14.07;8.80;;;;;;;8.75;93.50;96732.59;5024865;28;20037;-63
2021/04/29 02:35:39;;;;;;;16.90;8.75;;;;;;;8.83;94.30;96739.84;5026632;28;20041;-63
2021/04/29 02:38:04;;;;;;;15.20;8.73;;;;;;;8.79;93.64;96741.72;5027298;28;20084;-63
2021/04/29 02:40:30;;;;;;;13.95;8.38;;;;;;;7.89;94.20;96606.31;5026336;28;20072;-64
2021/04/29 02:42:57;;;;;;;12.88;8.52;;;;;;;8.87;93.14;96740.69;5026908;28;20060;-63
2021/04/29 02:45:22;;;;;;;15.38;9.25;;;;;;;8.91;92.02;96747.09;5026116;28;20052;-63
2021/04/29 02:47:50;;;;;;;17.48;10.45;;;;;;;8.90;92.22;96751.81;5026590;28;20430;-63
2021/04/29 02:50:19;;;;;;;15.90;9.23;;;;;;;8.80;91.91;96746.09;5024673;28;20049;-64
2021/04/29 02:52:46;;;;;;;19.90;12.00;;;;;;;8.79;91.54;96750.81;5026592;28;20108;-64
2021/04/29 02:55:12;;;;;;;21.02;11.90;;;;;;;8.84;92.16;96758.00;5024546;28;20037;-63
2021/04/29 02:57:39;;;;;;;18.35;10.40;;;;;;;8.92;90.01;96749.50;5026961;28;20112;-64
2021/04/29 03:00:06;;;;;;;17.55;10.20;;;;;;;8.79;90.87;96758.28;5026115;28;20061;-64
2021/04/29 03:02:32;;;;;;;24.55;13.02;;;;;;;8.43;90.14;96714.59;5026059;28;20045;-63
2021/04/29 03:04:57;;;;;;;25.75;14.02;;;;;;;8.34;90.20;96716.78;5025769;28;20493;-64
2021/04/29 03:07:23;;;;;;;29.40;16.65;;;;;;;8.64;91.91;96764.72;5023931;28;20036;-63
2021/04/29 03:09:48;;;;;;;27.45;16.27;;;;;;;8.52;92.82;96759.38;5024793;28;20489;-63
2021/04/29 03:12:14;;;;;;;25.75;14.25;;;;;;;8.58;91.70;96758.69;5025495;28;20041;-64
2021/04/29 03:14:39;;;;;;;21.67;14.23;;;;;;;8.44;93.22;96754.84;5026207;28;20049;-63
2021/04/29 03:17:05;;;;;;;21.67;12.25;;;;;;;8.53;93.18;96767.28;5025776;28;20036;-64
2021/04/29 03:19:31;;;;;;;16.85;10.60;;;;;;;8.59;92.44;96768.56;5024352;28;20465;-64
2021/04/29 03:21:56;;;;;;;18.20;10.35;;;;;;;8.11;93.44;96724.19;5025309;28;20033;-65
2021/04/29 03:24:22;;;;;;;19.08;10.27;;;;;;;8.57;92.97;96781.13;5025455;28;20492;-64
2021/04/29 03:26:47;;;;;;;14.15;8.75;;;;;;;8.78;91.09;96781.56;5021123;28;20113;-63
2021/04/29 03:29:12;;;;;;;18.50;9.27;;;;;;;8.53;89.49;96753.47;5006114;28;20076;-64
2021/04/29 03:31:39;;;;;;;24.77;10.75;;;;;;;8.68;87.94;96787.66;5005441;28;20492;-63
2021/04/29 03:34:05;;;;;;;20.75;10.73;;;;;;;7.20;89.21;96574.94;5004993;28;20088;-62
2021/04/29 03:36:30;;;;;;;22.17;10.98;;;;;;;8.55;89.91;96795.28;5003584;28;20475;-64
2021/04/29 03:38:55;;;;;;;19.45;11.75;;;;;;;8.56;90.04;96790.59;5006261;28;20033;-64
2021/04/29 03:41:21;;;;;;;19.65;11.63;;;;;;;8.62;90.35;96800.16;5003859;28;20038;-63
2021/04/29 03:43:47;;;;;;;21.30;10.90;;;;;;;8.44;91.00;96801.78;5005873;28;20436;-65
2021/04/29 03:46:12;;;;;;;21.05;10.25;;;;;;;8.44;90.89;96810.84;5004900;28;20037;-64
2021/04/29 03:48:38;;;;;;;20.80;11.73;;;;;;;8.08;91.34;96746.97;5005594;28;20033;-65
2021/04/29 03:51:03;;;;;;;20.88;12.10;;;;;;;8.10;91.67;96761.19;5005213;28;20058;-64
2021/04/29 03:53:29;;;;;;;20.80;11.00;;;;;;;8.65;91.49;96827.06;5005439;28;20038;-63
2021/04/29 03:55:54;;;;;;;20.60;10.40;;;;;;;8.84;90.02;96813.25;5005150;28;20045;-65
2021/04/29 03:58:20;;;;;;;27.25;13.23;;;;;;;8.93;89.31;96822.91;5005612;28;20042;-64
2021/04/29 04:00:45;;;;;;;24.50;14.43;;;;;;;9.04;88.99;96818.38;5003312;28;20038;-64
2021/04/29 04:03:11;;;;;;;29.95;15.23;;;;;;;9.17;87.86;96827.31;5005420;28;20040;-63
2021/04/29 04:05:36;;;;;;;29.92;18.63;;;;;;;8.82;87.65;96787.97;5019873;28;20048;-65
2021/04/29 04:08:02;;;;;;;35.67;17.65;;;;;;;8.71;88.26;96732.50;5003868;28;20133;-63
2021/04/29 04:10:28;;;;;;;21.10;13.02;;;;;;;9.49;87.53;96823.16;5005058;28;20300;-64
2021/04/29 04:12:54;;;;;;;19.00;10.48;;;;;;;8.15;87.12;96598.94;5003934;28;20176;-64
2021/04/29 04:15:19;;;;;;;16.75;9.70;;;;;;;9.56;86.84;96828.00;5004954;28;20480;-64
2021/04/29 04:17:45;;;;;;;16.48;10.80;;;;;;;9.13;87.86;96776.72;5004147;28;20477;-64
2021/04/29 04:20:11;;;;;;;21.08;13.77;;;;;;;9.70;86.74;96823.53;5004623;28;20044;-63
2021/04/29 04:22:36;;;;;;;17.20;12.95;;;;;;;9.22;87.15;96752.38;5004973;28;20033;-64
2021/04/29 04:25:02;;;;;;;24.13;14.25;;;;;;;9.89;87.56;96831.75;5005290;28;20030;-64
2021/04/29 04:27:27;;;;;;;19.42;11.98;;;;;;;10.03;87.25;96831.97;5012418;28;20128;-64
2021/04/29 04:29:53;;;;;;;16.90;11.70;;;;;;;9.75;86.24;96764.31;5024792;28;20064;-64
2021/04/29 04:32:18;;;;;;;15.65;9.90;;;;;;;10.27;85.00;96828.81;5023900;28;20033;-65
2021/04/29 04:34:45;;;;;;;12.55;9.00;;;;;;;10.33;85.38;96841.16;5022773;28;20030;-64
2021/04/29 04:37:10;;;;;;;13.40;9.40;;;;;;;10.43;85.18;96840.50;5023515;28;20052;-64
2021/04/29 04:39:36;;;;;;;16.77;8.88;;;;;;;10.16;84.56;96747.56;5022663;28;20037;-66
2021/04/29 04:42:05;;;;;;;14.13;9.10;;;;;;;10.69;84.51;96823.84;5023893;28;20036;-64
2021/04/29 04:44:31;;;;;;;15.43;10.60;;;;;;;10.81;84.44;96827.56;5024404;28;20041;-64
2021/04/29 04:46:56;;;;;;;17.60;10.25;;;;;;;10.49;84.07;96764.25;5022418;28;20025;-64
2021/04/29 04:49:22;;;;;;;15.00;9.77;;;;;;;11.18;82.93;96842.22;5024031;28;20025;-64
2021/04/29 04:51:47;;;;;;;19.17;11.93;;;;;;;11.44;82.07;96833.81;5021749;28;20432;-64
2021/04/29 04:54:16;;;;;;;16.25;9.35;;;;;;;11.48;83.45;96845.72;5022593;28;20029;-65
2021/04/29 04:56:42;;;;;;;22.85;11.20;;;;;;;11.51;83.92;96844.97;5023407;28;20041;-64
2021/04/29 04:59:07;;;;;;;16.80;10.27;;;;;;;11.65;82.56;96850.72;5023710;28;20399;-64
2021/04/29 05:01:33;;;;;;;17.52;11.40;;;;;;;11.83;82.18;96849.69;5023494;28;20477;-65
2021/04/29 05:03:58;;;;;;;19.58;12.10;;;;;;;11.60;81.04;96798.31;5024334;28;20435;-65
2021/04/29 05:06:24;;;;;;;16.83;9.73;;;;;;;11.95;81.49;96849.38;5023686;28;20025;-64
2021/04/29 05:08:49;;;;;;;14.68;9.38;;;;;;;12.13;81.46;96849.53;5024067;28;20033;-64
2021/04/29 05:11:15;;;;;;;14.48;9.25;;;;;;;12.30;80.45;96873.84;5021620;28;20046;-64
2021/04/29 05:13:40;;;;;;;17.90;9.27;;;;;;;12.49;78.28;96851.38;5022359;28;20033;-64
2021/04/29 05:16:06;;;;;;;19.40;11.25;;;;;;;12.56;78.59;96851.44;5023038;28;20060;-65
2021/04/29 05:18:31;;;;;;;13.88;9.70;;;;;;;12.54;79.26;96859.34;5022187;28;20041;-64
2021/04/29 05:20:56;;;;;;;20.20;9.93;;;;;;;12.78;78.87;96850.34;5021902;28;20034;-65
2021/04/29 05:23:22;;;;;;;20.52;10.32;;;;;;;12.98;77.53;96854.41;5024119;28;20033;-66
2021/04/29 05:25:47;;;;;;;14.27;8.75;;;;;;;12.71;76.04;96775.28;5022209;28;20032;-65
2021/04/29 05:28:13;;;;;;;14.68;9.50;;;;;;;12.52;74.70;96722.78;5009075;28;20034;-65
2021/04/29 05:30:39;;;;;;;14.00;8.82;;;;;;;13.21;75.29;96821.59;5003998;28;20033;-65
2021/04/29 05:33:04;;;;;;;17.45;8.85;;;;;;;13.23;73.92;96805.28;5018884;28;20040;-65
2021/04/29 05:35:30;;;;;;;12.30;8.43;;;;;;;13.27;73.66;96789.41;5003517;28;20574;-65
2021/04/29 05:37:55;;;;;;;14.52;8.75;;;;;;;13.20;73.51;96808.03;5018650;28;20036;-64
2021/04/29 05:40:21;;;;;;;17.45;8.93;;;;;;;13.80;72.83;96852.72;5003368;28;20485;-64
2021/04/29 05:42:47;;;;;;;19.15;9.52;;;;;;;13.64;72.71;96851.09;5003870;28;20405;-64
2021/04/29 05:45:13;;;;;;;14.77;8.45;;;;;;;13.49;71.96;96799.38;5004536;28;20041;-63
2021/04/29 05:47:39;;;;;;;12.10;9.13;;;;;;;13.91;70.86;96831.25;5021172;28;20119;-65
2021/04/29 05:50:05;;;;;;;18.58;8.65;;;;;;;14.32;70.23;96857.53;5017495;28;20534;-64
2021/04/29 05:52:31;;;;;;;19.23;8.70;;;;;;;14.44;69.98;96859.91;5022463;28;20044;-64
2021/04/29 05:54:57;;;;;;;16.27;8.48;;;;;;;14.59;69.51;96855.91;5022882;28;20423;-65
2021/04/29 05:57:23;;;;;;;14.43;7.57;;;;;;;14.68;68.52;96864.66;5037160;28;20224;-65
2021/04/29 05:59:48;;;;;;;10.93;8.10;;;;;;;14.06;67.84;96732.56;5022742;28;20026;-65
2021/04/29 06:02:14;;;;;;;13.93;8.60;;;;;;;14.91;67.83;96862.19;5021616;28;20068;-64
2021/04/29 06:04:39;;;;;;;11.77;9.15;;;;;;;15.06;67.90;96858.19;5021671;28;20044;-64
2021/04/29 06:07:05;;;;;;;13.68;8.77;;;;;;;14.74;65.88;96779.41;5022247;28;20029;-63
2021/04/29 06:09:30;;;;;;;10.75;8.55;;;;;;;15.12;65.83;96818.31;5023348;28;20037;-65
2021/04/29 06:11:56;;;;;;;21.38;9.30;;;;;;;14.86;68.57;96859.81;5021920;28;20036;-64
2021/04/29 06:14:21;;;;;;;10.52;7.80;;;;;;;14.09;70.31;96857.09;5021593;28;20042;-64
2021/04/29 06:16:46;;;;;;;16.13;9.23;;;;;;;13.97;70.98;96841.59;5018933;28;20520;-67
2021/04/29 06:19:12;;;;;;;14.77;8.63;;;;;;;14.54;70.47;96867.47;5021015;28;20124;-64
2021/04/29 06:21:38;;;;;;;16.42;8.75;;;;;;;13.45;68.69;96620.50;5022285;28;20037;-65
2021/04/29 06:24:03;;;;;;;13.50;7.97;;;;;;;15.34;67.16;96874.81;5022521;28;20060;-69
2021/04/29 06:26:31;;;;;;;14.38;7.93;;;;;;;14.74;66.50;96796.94;5022479;28;20029;-66
2021/04/29 06:28:56;;;;;;;14.00;8.65;;;;;;;15.43;67.05;96872.41;5022697;28;20037;-64
2021/04/29 06:31:21;;;;;;;11.73;8.43;;;;;;;15.11;65.39;96794.38;5022221;28;20492;-65
2021/04/29 06:33:47;;;;;;;10.38;8.60;;;;;;;15.45;64.76;96858.03;5022654;28;20032;-67
2021/04/29 06:36:12;;;;;;;13.27;8.07;;;;;;;14.62;65.71;96760.34;5021736;28;20046;-64
2021/04/29 06:38:38;;;;;;;12.10;7.93;;;;;;;14.79;68.62;96871.00;5022422;28;20040;-64
2021/04/29 06:41:04;;;;;;;14.32;9.10;;;;;;;14.86;68.58;96859.81;5023257;28;20039;-68
2021/04/29 06:43:29;;;;;;;16.88;8.85;;;;;;;14.54;68.96;96795.00;5024183;28;20021;-67
2021/04/29 06:45:55;;;;;;;13.35;8.70;;;;;;;15.60;67.93;96871.50;5025448;28;20087;-63
2021/04/29 06:48:21;;;;;;;11.00;8.13;;;;;;;15.72;66.57;96867.47;5025687;28;20033;-64
2021/04/29 06:50:46;;;;;;;17.05;8.35;;;;;;;15.75;66.11;96825.56;5025009;28;20072;-69
2021/04/29 06:53:12;;;;;;;14.60;9.02;;;;;;;16.13;65.43;96871.97;5026807;28;20381;-67
2021/04/29 06:55:37;;;;;;;12.18;8.43;;;;;;;15.92;64.47;96793.91;5025929;28;20052;-66
2021/04/29 06:58:03;;;;;;;13.57;8.52;;;;;;;16.74;63.99;96873.06;5023830;28;20069;-66
2021/04/29 07:00:28;;;;;;;10.30;8.80;;;;;;;15.43;67.82;96808.19;5024548;28;20068;-66
2021/04/29 07:02:56;;;;;;;14.63;9.07;;;;;;;16.37;66.40;96876.59;5024215;28;20029;-66
2021/04/29 07:05:24;;;;;;;14.82;8.75;;;;;;;16.72;65.57;96880.28;5025106;28;20045;-63
2021/04/29 07:07:51;;;;;;;12.30;9.15;;;;;;;15.80;67.05;96763.69;5022830;28;20029;-63
2021/04/29 07:10:17;;;;;;;15.88;9.20;;;;;;;16.60;67.13;96874.00;5025069;28;20043;-65
2021/04/29 07:12:42;;;;;;;11.80;8.85;;;;;;;16.32;66.29;96772.78;5025773;28;20037;-65
2021/04/29 07:15:08;;;;;;;14.45;9.98;;;;;;;17.38;64.23;96873.16;5025112;28;20111;-63
2021/04/29 07:17:34;;;;;;;16.02;9.27;;;;;;;17.10;64.88;96809.13;5025415;28;20099;-62
2021/04/29 07:19:59;;;;;;;13.55;9.18;;;;;;;17.79;64.36;96876.66;5023941;28;20041;-64
2021/04/29 07:22:25;;;;;;;13.68;8.93;;;;;;;16.27;64.35;96653.84;5023311;28;20362;-61
2021/04/29 07:24:50;;;;;;;13.07;9.10;;;;;;;17.55;63.52;96846.97;5025628;28;20112;-61
2021/04/29 07:27:16;;;;;;;15.23;8.30;;;;;;;17.72;63.72;96882.38;5024784;28;20065;-67
2021/04/29 07:29:41;;;;;;;18.10;9.30;;;;;;;17.73;63.50;96839.13;5025076;28;20033;-61
2021/04/29 07:32:07;;;;;;;15.27;9.20;;;;;;;17.80;63.34;96839.81;5040536;28;20068;-61
2021/04/29 07:34:32;;;;;;;14.50;8.70;;;;;;;17.92;63.06;96864.44;5025508;28;20545;-63
2021/04/29 07:36:59;;;;;;;11.68;8.43;;;;;;;17.68;62.39;96817.19;5024260;28;20403;-62
2021/04/29 07:39:25;;;;;;;12.38;8.30;;;;;;;18.12;62.58;96867.34;5025296;28;20037;-62
2021/04/29 07:41:50;;;;;;;11.65;8.13;;;;;;;17.05;64.79;96820.78;5024367;28;20034;-62
2021/04/29 07:44:16;;;;;;;14.50;9.50;;;;;;;17.64;65.11;96866.88;5024391;28;20025;-63
2021/04/29 07:46:42;;;;;;;14.80;9.43;;;;;;;18.00;63.32;96853.94;5024965;28;20397;-65
2021/04/29 07:49:07;;;;;;;12.35;9.05;;;;;;;17.63;63.00;96778.44;5025157;28;20489;-61
2021/04/29 07:51:33;;;;;;;14.57;7.50;;;;;;;17.74;61.74;96784.66;5023843;28;20521;-67
2021/04/29 07:54:00;;;;;;;11.77;8.77;;;;;;;17.81;62.53;96790.94;5024429;28;20032;-71
2021/04/29 07:56:25;;;;;;;12.10;8.18;;;;;;;17.80;62.36;96746.53;5023710;28;20103;-67
2021/04/29 07:58:51;;;;;;;12.77;8.75;;;;;;;18.16;62.20;96812.03;5024780;28;20033;-66
2021/04/29 08:01:16;;;;;;;18.38;12.02;;;;;;;18.52;61.64;96813.03;5021840;28;20033;-67
2021/04/29 08:03:41;;;;;;;12.55;8.73;;;;;;;18.79;60.23;96824.19;5022980;28;20431;-65
2021/04/29 08:06:07;;;;;;;13.68;7.53;;;;;;;19.10;58.79;96862.06;5004516;28;20038;-66
2021/04/29 08:08:32;;;;;;;10.50;7.45;;;;;;;18.16;58.86;96719.53;5024399;28;20116;-67
2021/04/29 08:10:58;;;;;;;11.80;7.88;;;;;;;19.10;58.07;96851.63;5023877;28;20493;-68
2021/04/29 08:13:23;;;;;;;10.68;7.57;;;;;;;19.25;57.26;96850.13;5024900;28;20087;-66
2021/04/29 08:15:49;;;;;;;16.52;10.02;;;;;;;18.39;60.79;96814.88;5023545;28;20504;-68
2021/04/29 08:18:14;;;;;;;15.45;8.32;;;;;;;17.50;60.44;96663.38;5024631;28;20041;-67
2021/04/29 08:20:40;;;;;;;11.38;8.48;;;;;;;18.30;60.01;96761.31;5024194;28;20029;-69
2021/04/29 08:23:06;;;;;;;12.10;8.43;;;;;;;18.28;59.34;96699.25;5024359;28;20032;-72
2021/04/29 08:25:32;;;;;;;12.63;8.30;;;;;;;19.05;58.71;96826.06;5021231;28;20584;-65
2021/04/29 08:27:58;;;;;;;9.77;7.07;;;;;;;18.46;57.21;96750.25;5023615;28;20037;-69
2021/04/29 08:30:27;;;;;;;15.95;8.43;;;;;;;18.54;62.09;96849.84;5022104;28;20048;-67
2021/04/29 08:32:58;;;;;;;14.45;7.90;;;;;;;18.12;61.89;96800.06;5022106;28;20056;-71
2021/04/29 08:35:25;;;;;;;14.75;8.68;;;;;;;19.16;59.59;96858.34;5023025;28;20033;-70
2021/04/29 08:37:51;;;;;;;13.18;9.57;;;;;;;19.27;57.41;96828.03;5038712;28;20045;-69
2021/04/29 08:40:18;;;;;;;12.60;9.32;;;;;;;18.90;56.53;96704.88;5023814;28;20385;-69
2021/04/29 08:42:44;;;;;;;14.13;7.80;;;;;;;20.02;55.18;96877.84;5023525;28;20049;-69
2021/04/29 08:45:11;;;;;;;8.50;7.57;;;;;;;20.01;54.66;96783.47;5022392;28;20045;-69
2021/04/29 08:47:37;;;;;;;26.20;8.50;;;;;;;18.60;55.34;96623.72;5022970;28;20037;-69
2021/04/29 08:50:05;;;;;;;11.55;7.97;;;;;;;18.22;57.28;96726.22;5021664;28;20041;-68
2021/04/29 08:52:31;;;;;;;11.77;8.43;;;;;;;19.44;56.23;96835.31;5020946;28;20068;-68
2021/04/29 08:54:56;;;;;;;11.23;7.95;;;;;;;19.25;56.15;96754.63;5021032;28;20417;-66
2021/04/29 08:57:22;;;;;;;30.73;10.35;;;;;;;19.10;56.42;96744.94;5019387;28;20052;-64
2021/04/29 08:59:48;;;;;;;10.88;7.82;;;;;;;18.60;56.20;96639.75;5010450;28;20034;-69
2021/04/29 09:02:13;;;;;;;11.45;8.10;;;;;;;20.06;54.68;96825.13;5013496;28;20542;-67
2021/04/29 09:04:41;;;;;;;73.90;13.82;;;;;;;20.14;54.81;96821.72;5020638;28;20041;-64
2021/04/29 09:07:14;;;;;;;66.20;38.95;;;;;;;20.08;53.52;96786.09;5021548;28;20026;-64
2021/04/29 09:09:41;;;;;;;;;;;;;;;20.61;53.57;96830.63;5022876;28;20099;-68
2021/04/29 09:12:06;;;;;;;11.88;7.63;;;;;;;19.47;51.98;96660.25;5020261;28;19925;-65
2021/04/29 09:14:36;;;;;;;12.55;8.13;;;;;;;20.76;52.60;96826.19;5023032;28;20567;-65
2021/04/29 09:17:02;;;;;;;10.57;8.23;;;;;;;20.41;53.35;96827.09;5020416;28;20042;-65
2021/04/29 09:19:33;;;;;;;15.98;9.27;;;;;;;20.38;53.08;96814.69;5021499;28;20038;-66
2021/04/29 09:21:59;;;;;;;11.02;7.68;;;;;;;19.68;53.86;96804.31;5022539;28;20083;-65
2021/04/29 09:24:34;;;;;;;14.60;10.32;;;;;;;20.38;52.33;96819.53;5022461;28;20539;-66
2021/04/29 09:27:09;;;;;;;9.13;7.80;;;;;;;20.62;51.58;96813.28;5023166;28;20033;-66
2021/04/29 09:29:34;;;;;;;12.02;8.32;;;;;;;20.70;52.24;96811.06;5023307;28;20420;-67
2021/04/29 09:32:00;;;;;;;11.32;8.40;;;;;;;20.43;51.89;96768.34;5022285;28;20034;-66
2021/04/29 09:34:25;;;;;;;9.05;8.00;;;;;;;20.44;52.85;96806.50;5022727;28;20092;-65
2021/04/29 09:36:51;;;;;;;9.63;7.80;;;;;;;20.62;52.74;96802.03;5002096;28;20593;-63
2021/04/29 09:39:18;;;;;;;9.15;7.05;;;;;;;20.80;51.51;96779.81;5022575;28;20041;-69
2021/04/29 09:41:47;;;;;;;8.75;7.75;;;;;;;21.08;50.93;96755.72;5035093;28;20746;-69
2021/04/29 09:44:34;;;;;;;11.10;8.10;;;;;;;21.44;50.16;96801.34;5022590;28;20405;-65
2021/04/29 09:47:03;;;;;;;9.88;7.45;;;;;;;21.50;49.91;96799.56;5021956;28;20088;-65
2021/04/29 09:49:34;;;;;;;11.80;8.13;;;;;;;21.16;51.21;96807.81;5021646;28;20555;-63
2021/04/29 09:52:02;;;;;;;13.63;7.75;;;;;;;20.62;52.22;96728.03;5021540;28;20496;-71
2021/04/29 09:54:29;;;;;;;8.65;7.60;;;;;;;21.27;50.87;96797.03;5023233;28;20111;-68
2021/04/29 09:57:04;;;;;;;8.27;7.35;;;;;;;20.61;50.69;96653.28;5022361;28;20038;-66
2021/04/29 09:59:30;;;;;;;8.65;7.57;;;;;;;20.78;50.07;96697.03;5022637;28;20212;-66
2021/04/29 10:01:57;;;;;;;9.57;7.72;;;;;;;20.12;52.51;96683.50;5019516;28;20040;-70
2021/04/29 10:04:24;;;;;;;10.60;7.65;;;;;;;20.77;52.55;96796.81;5021443;28;20053;-65
2021/04/29 10:06:51;;;;;;;12.52;8.13;;;;;;;19.30;50.75;96487.34;5016077;28;20420;-67
2021/04/29 10:09:16;;;;;;;10.55;7.72;;;;;;;21.53;50.48;96790.19;5018597;28;20037;-65
2021/04/29 10:11:44;;;;;;;10.77;7.35;;;;;;;21.77;49.42;96780.22;5012473;28;20033;-67
2021/04/29 10:14:11;;;;;;;10.82;7.97;;;;;;;21.33;50.40;96789.59;5004144;28;20100;-64
2021/04/29 10:16:38;;;;;;;11.20;7.57;;;;;;;21.34;50.14;96785.53;5024793;28;20044;-64
2021/04/29 10:19:03;;;;;;;9.65;7.30;;;;;;;21.90;50.73;96792.31;5024634;28;20091;-69
2021/04/29 10:21:29;;;;;;;9.77;6.80;;;;;;;20.31;48.08;96511.03;5041107;28;20042;-65
2021/04/29 10:23:54;;;;;;;11.70;7.53;;;;;;;21.73;49.77;96804.13;5026258;28;20481;-64
2021/04/29 10:26:27;;;;;;;8.73;6.75;;;;;;;21.38;48.28;96684.78;5025332;28;20048;-65
2021/04/29 10:29:03;;;;;;;9.35;6.68;;;;;;;21.77;48.74;96712.56;5025985;28;20034;-67
2021/04/29 10:31:31;;;;;;;12.90;7.40;;;;;;;22.60;48.54;96788.44;5024926;28;20041;-69
2021/04/29 10:33:59;;;;;;;11.05;7.18;;;;;;;22.80;47.09;96783.28;5024390;28;20060;-65
2021/04/29 10:36:44;;;;;;;14.27;7.97;;;;;;;21.82;46.76;96599.19;5025672;28;20432;-68
2021/04/29 10:39:18;;;;;;;9.70;6.88;;;;;;;22.08;48.30;96764.31;5018149;28;20073;-66
2021/04/29 10:41:46;;;;;;;16.67;8.85;;;;;;;21.62;49.45;96677.59;5023217;28;20456;-68
2021/04/29 10:44:19;;;;;;;12.93;6.97;;;;;;;21.75;49.40;96793.97;5026183;28;20065;-66
2021/04/29 10:46:47;;;;;;;16.15;8.77;;;;;;;19.08;49.83;96359.94;5022617;28;20297;-65
2021/04/29 10:49:14;;;;;;;8.85;7.50;;;;;;;22.13;48.59;96779.91;5025704;28;20483;-66
2021/04/29 10:51:42;;;;;;;7.50;6.43;;;;;;;22.34;48.14;96777.16;5023052;28;20443;-65
2021/04/29 10:54:20;;;;;;;8.35;7.00;;;;;;;22.02;49.40;96796.41;5025181;28;20030;-61
2021/04/29 10:56:59;;;;;;;10.85;7.43;;;;;;;22.67;47.82;96779.72;5023277;28;20540;-68
2021/04/29 10:59:43;;;;;;;7.65;6.60;;;;;;;22.62;47.63;96743.59;5016795;28;20535;-64
2021/04/29 11:02:41;;;;;;;8.98;6.35;;;;;;;22.31;48.17;96780.91;5018647;28;20034;-65
2021/04/29 11:05:19;;;;;;;9.05;6.43;;;;;;;22.77;47.55;96755.97;5013236;28;20056;-67
2021/04/29 11:07:47;;;;;;;7.65;6.90;;;;;;;22.26;48.52;96733.50;5005872;28;20469;-65
2021/04/29 11:10:13;;;;;;;10.45;7.28;;;;;;;22.33;50.13;96738.91;5005186;28;20129;-66
2021/04/29 11:12:45;;;;;;;6.85;5.90;;;;;;;22.78;47.32;96763.22;5024602;28;20111;-65
2021/04/29 11:15:19;;;;;;;10.95;7.28;;;;;;;22.97;47.87;96762.13;5022028;28;20470;-63
2021/04/29 11:17:45;;;;;;;9.00;6.30;;;;;;;20.07;48.56;96365.50;5024050;28;20045;-67
2021/04/29 11:20:11;;;;;;;14.90;10.25;;;;;;;19.55;48.73;96312.50;5024610;28;20041;-65
2021/04/29 11:22:39;;;;;;;8.02;7.30;;;;;;;22.14;48.11;96613.00;5024007;28;20114;-68
2021/04/29 11:25:09;;;;;;;17.77;9.80;;;;;;;22.20;49.11;96684.53;5024486;28;20045;-67